createdAt,value
2017-10-22T00:02:19.922Z,20.50
2017-10-22T00:04:49.845Z,20.50
2017-10-22T00:07:18.716Z,20.40
2017-10-22T00:09:47.612Z,20.40
2017-10-22T00:12:16.512Z,20.40
2017-10-22T00:14:46.416Z,20.50
2017-10-22T00:17:16.292Z,20.50
2017-10-22T00:19:45.318Z,20.50
2017-10-22T00:22:14.116Z,20.40
2017-10-22T00:24:43.050Z,20.40
2017-10-22T00:27:11.797Z,20.30
2017-10-22T00:29:43.038Z,20.20
2017-10-22T00:32:12.134Z,20.20
2017-10-22T00:34:41.026Z,20.20
2017-10-22T00:37:09.851Z,20.20
2017-10-22T00:39:38.708Z,20.20
2017-10-22T00:42:07.501Z,20.20
2017-10-22T00:44:36.386Z,20.20
2017-10-22T00:47:05.306Z,20.30
2017-10-22T00:49:34.067Z,20.30
2017-10-22T00:52:04.129Z,20.30
2017-10-22T00:54:33.052Z,20.30
2017-10-22T00:57:01.770Z,20.30
2017-10-22T00:59:30.551Z,20.20
2017-10-22T01:02:00.261Z,20.10
2017-10-22T01:04:29.290Z,20.00
2017-10-22T01:06:58.067Z,20.10
2017-10-22T01:09:26.936Z,20.00
2017-10-22T01:11:55.876Z,20.00
2017-10-22T01:14:26.096Z,20.00
2017-10-22T01:17:00.633Z,20.00
2017-10-22T01:19:34.368Z,20.00
2017-10-22T01:22:04.409Z,20.00
2017-10-22T01:24:34.544Z,20.00
2017-10-22T01:27:03.402Z,20.00
2017-10-22T01:29:32.600Z,20.00
2017-10-22T01:32:01.513Z,20.00
2017-10-22T01:34:30.801Z,20.00
2017-10-22T01:36:59.643Z,20.00
2017-10-22T01:39:29.495Z,20.00
2017-10-22T01:41:58.565Z,20.00
2017-10-22T01:44:27.484Z,20.00
2017-10-22T01:46:57.603Z,20.00
2017-10-22T01:49:27.108Z,20.00
2017-10-22T01:51:57.126Z,19.90
2017-10-22T01:54:27.111Z,19.80
2017-10-22T01:56:57.372Z,19.80
2017-10-22T01:59:26.461Z,19.80
2017-10-22T02:01:55.502Z,19.70
2017-10-22T02:04:26.589Z,19.60
2017-10-22T02:06:56.269Z,19.60
2017-10-22T02:09:25.575Z,19.70
2017-10-22T02:11:54.439Z,19.70
2017-10-22T02:14:23.495Z,19.80
2017-10-22T02:16:52.128Z,19.70
2017-10-22T02:19:21.278Z,19.70
2017-10-22T02:21:50.116Z,19.70
2017-10-22T02:24:19.059Z,19.70
2017-10-22T02:26:47.882Z,19.60
2017-10-22T02:29:18.070Z,19.50
2017-10-22T02:31:47.887Z,19.50
2017-10-22T02:34:16.803Z,19.50
2017-10-22T02:36:46.793Z,19.40
2017-10-22T02:39:16.090Z,19.40
2017-10-22T02:41:44.782Z,19.40
2017-10-22T02:44:13.669Z,19.30
2017-10-22T02:46:42.509Z,19.40
2017-10-22T02:49:12.169Z,19.30
2017-10-22T02:51:41.136Z,19.30
2017-10-22T02:54:10.053Z,19.20
2017-10-22T02:56:38.678Z,19.20
2017-10-22T02:59:07.466Z,19.10
2017-10-22T03:01:36.419Z,19.20
2017-10-22T03:04:05.624Z,19.10
2017-10-22T03:06:35.909Z,19.10
2017-10-22T03:09:04.800Z,19.10
2017-10-22T03:11:34.890Z,19.00
2017-10-22T03:14:04.602Z,19.00
2017-10-22T03:16:34.683Z,19.00
2017-10-22T03:19:03.364Z,19.00
2017-10-22T03:21:32.536Z,18.90
2017-10-22T03:24:01.253Z,18.90
2017-10-22T03:26:29.935Z,18.90
2017-10-22T03:28:59.036Z,18.90
2017-10-22T03:31:28.538Z,18.80
2017-10-22T03:33:57.428Z,18.80
2017-10-22T03:36:26.217Z,18.80
2017-10-22T03:38:54.904Z,18.80
2017-10-22T03:41:23.808Z,18.70
2017-10-22T03:43:52.588Z,18.70
2017-10-22T03:46:21.688Z,18.60
2017-10-22T03:48:50.369Z,18.60
2017-10-22T03:51:19.217Z,18.60
2017-10-22T03:53:47.954Z,18.60
2017-10-22T03:56:16.944Z,18.50
2017-10-22T03:58:45.836Z,18.30
2017-10-22T04:01:15.035Z,18.20
2017-10-22T04:03:45.355Z,18.20
2017-10-22T04:06:14.040Z,18.20
2017-10-22T04:08:43.956Z,18.10
2017-10-22T04:11:14.529Z,18.10
2017-10-22T04:13:43.594Z,18.10
2017-10-22T04:16:12.371Z,18.10
2017-10-22T04:18:41.160Z,18.00
2017-10-22T04:21:10.050Z,18.10
2017-10-22T04:23:40.996Z,18.00
2017-10-22T04:26:10.089Z,18.00
2017-10-22T04:28:39.793Z,18.10
2017-10-22T04:31:08.682Z,18.10
2017-10-22T04:33:37.410Z,18.00
2017-10-22T04:36:07.185Z,18.00
2017-10-22T04:38:35.968Z,18.00
2017-10-22T04:41:04.756Z,17.90
2017-10-22T04:43:33.442Z,17.80
2017-10-22T04:46:02.273Z,17.80
2017-10-22T04:48:32.147Z,17.80
2017-10-22T04:51:01.716Z,17.80
2017-10-22T04:53:30.652Z,17.70
2017-10-22T04:55:59.337Z,17.80
2017-10-22T04:58:28.021Z,17.80
2017-10-22T05:00:56.912Z,17.80
2017-10-22T05:03:26.631Z,17.90
2017-10-22T05:05:55.307Z,17.80
2017-10-22T05:08:24.204Z,17.80
2017-10-22T05:10:53.974Z,17.80
2017-10-22T05:13:23.619Z,17.80
2017-10-22T05:15:52.669Z,17.80
2017-10-22T05:18:21.606Z,17.90
2017-10-22T05:20:50.453Z,18.00
2017-10-22T05:23:19.157Z,18.00
2017-10-22T05:25:47.874Z,17.90
2017-10-22T05:28:16.660Z,17.90
2017-10-22T05:30:45.449Z,17.80
2017-10-22T05:33:14.339Z,17.60
2017-10-22T05:35:44.988Z,17.60
2017-10-22T05:38:13.756Z,17.60
2017-10-22T05:40:42.446Z,17.60
2017-10-22T05:43:11.335Z,17.70
2017-10-22T05:45:40.429Z,17.80
2017-10-22T05:48:09.218Z,17.70
2017-10-22T05:50:38.172Z,17.70
2017-10-22T05:53:07.615Z,17.60
2017-10-22T05:55:36.510Z,17.60
2017-10-22T05:58:05.396Z,17.60
2017-10-22T06:00:34.296Z,17.60
2017-10-22T06:03:02.974Z,17.60
2017-10-22T06:05:31.791Z,17.50
2017-10-22T06:08:00.756Z,17.40
2017-10-22T06:10:29.859Z,17.40
2017-10-22T06:12:58.718Z,17.30
2017-10-22T06:15:27.536Z,17.30
2017-10-22T06:17:56.343Z,17.30
2017-10-22T06:20:25.112Z,17.20
2017-10-22T06:22:53.956Z,17.20
2017-10-22T06:25:23.714Z,17.20
2017-10-22T06:27:53.424Z,17.10
2017-10-22T06:30:22.516Z,17.10
2017-10-22T06:32:51.406Z,17.10
2017-10-22T06:35:20.298Z,17.10
2017-10-22T06:37:49.291Z,17.10
2017-10-22T06:40:18.388Z,17.10
2017-10-22T06:42:47.387Z,17.10
2017-10-22T06:45:16.273Z,17.10
2017-10-22T06:47:45.298Z,17.10
2017-10-22T06:50:14.175Z,17.10
2017-10-22T06:52:43.052Z,17.20
2017-10-22T06:55:11.938Z,17.10
2017-10-22T06:57:41.034Z,17.10
2017-10-22T07:00:09.823Z,17.10
2017-10-22T07:02:39.740Z,17.10
2017-10-22T07:05:08.642Z,17.10
2017-10-22T07:07:37.519Z,17.10
2017-10-22T07:10:06.233Z,17.00
2017-10-22T07:12:35.103Z,17.00
2017-10-22T07:15:05.218Z,17.10
2017-10-22T07:17:34.119Z,17.20
2017-10-22T07:20:03.036Z,17.20
2017-10-22T07:22:33.703Z,17.20
2017-10-22T07:25:02.434Z,17.20
2017-10-22T07:27:31.110Z,17.30
2017-10-22T07:30:00.224Z,17.30
2017-10-22T07:32:29.092Z,17.30
2017-10-22T07:34:57.986Z,17.20
2017-10-22T07:37:26.875Z,17.30
2017-10-22T07:39:55.674Z,17.30
2017-10-22T07:42:24.423Z,17.30
2017-10-22T07:44:53.146Z,17.20
2017-10-22T07:47:22.197Z,17.10
2017-10-22T07:49:50.955Z,17.10
2017-10-22T07:52:19.647Z,17.10
2017-10-22T07:54:49.260Z,17.00
2017-10-22T07:57:18.827Z,17.00
2017-10-22T07:59:47.390Z,17.00
2017-10-22T08:02:16.142Z,16.90
2017-10-22T08:04:44.817Z,17.00
2017-10-22T08:07:13.426Z,17.00
2017-10-22T08:09:42.146Z,17.10
2017-10-22T08:12:10.776Z,17.00
2017-10-22T08:14:39.740Z,16.90
2017-10-22T08:17:13.137Z,16.90
2017-10-22T08:19:43.498Z,16.90
2017-10-22T08:22:12.230Z,17.00
2017-10-22T08:24:40.890Z,16.90
2017-10-22T08:27:10.358Z,17.00
2017-10-22T08:29:39.180Z,17.10
2017-10-22T08:32:08.578Z,17.20
2017-10-22T08:34:37.987Z,17.40
2017-10-22T08:37:06.716Z,17.40
2017-10-22T08:39:35.296Z,17.40
2017-10-22T08:42:04.740Z,17.40
2017-10-22T08:44:34.676Z,17.50
2017-10-22T08:47:03.458Z,17.50
2017-10-22T08:49:32.219Z,17.50
2017-10-22T08:52:01.758Z,17.90
2017-10-22T08:54:30.501Z,17.80
2017-10-22T08:56:59.477Z,18.00
2017-10-22T08:59:29.112Z,18.00
2017-10-22T09:01:59.522Z,17.90
2017-10-22T09:04:29.308Z,17.90
2017-10-22T09:06:58.188Z,18.10
2017-10-22T09:09:27.015Z,18.30
2017-10-22T09:11:55.768Z,18.30
2017-10-22T09:14:24.535Z,18.30
2017-10-22T09:16:53.209Z,18.50
2017-10-22T09:19:22.126Z,18.60
2017-10-22T09:21:50.763Z,19.00
2017-10-22T09:24:20.245Z,18.60
2017-10-22T09:26:49.216Z,18.60
2017-10-22T09:29:17.944Z,18.60
2017-10-22T09:31:46.567Z,18.40
2017-10-22T09:34:15.357Z,18.60
2017-10-22T09:36:44.251Z,18.60
2017-10-22T09:39:14.107Z,18.70
2017-10-22T09:41:43.101Z,18.70
2017-10-22T09:44:13.630Z,18.80
2017-10-22T09:46:42.335Z,18.80
2017-10-22T09:49:11.410Z,18.70
2017-10-22T09:51:41.014Z,18.70
2017-10-22T09:54:10.212Z,18.70
2017-10-22T09:56:38.960Z,18.60
2017-10-22T09:59:07.918Z,18.70
2017-10-22T10:01:36.678Z,18.80
2017-10-22T10:04:05.526Z,18.80
2017-10-22T10:06:36.021Z,18.80
2017-10-22T10:09:09.648Z,18.80
2017-10-22T10:11:38.394Z,18.90
2017-10-22T10:14:07.079Z,18.90
2017-10-22T10:16:36.007Z,18.90
2017-10-22T10:19:04.909Z,18.90
2017-10-22T10:21:34.349Z,19.00
2017-10-22T10:24:04.072Z,18.90
2017-10-22T10:26:32.852Z,18.80
2017-10-22T10:29:01.547Z,18.70
2017-10-22T10:31:31.983Z,18.80
2017-10-22T10:34:00.849Z,18.90
2017-10-22T10:36:29.545Z,19.10
2017-10-22T10:38:58.347Z,19.10
2017-10-22T10:41:27.118Z,19.30
2017-10-22T10:43:56.716Z,19.30
2017-10-22T10:46:25.466Z,19.30
2017-10-22T10:48:54.148Z,19.50
2017-10-22T10:51:22.856Z,19.50
2017-10-22T10:53:51.567Z,19.70
2017-10-22T10:56:20.294Z,19.70
2017-10-22T10:58:48.988Z,19.60
2017-10-22T11:01:17.774Z,19.80
2017-10-22T11:03:46.949Z,19.80
2017-10-22T11:06:15.660Z,19.90
2017-10-22T11:08:45.224Z,20.00
2017-10-22T11:11:14.104Z,20.00
2017-10-22T11:13:42.975Z,20.00
2017-10-22T11:16:11.844Z,20.10
2017-10-22T11:18:40.484Z,20.10
2017-10-22T11:21:09.324Z,20.20
2017-10-22T11:23:38.324Z,20.30
2017-10-22T11:26:07.111Z,20.20
2017-10-22T11:28:36.535Z,20.40
2017-10-22T11:31:05.333Z,20.30
2017-10-22T11:33:34.545Z,20.40
2017-10-22T11:36:03.575Z,20.40
2017-10-22T11:38:32.249Z,20.30
2017-10-22T11:41:00.885Z,20.30
2017-10-22T11:43:30.267Z,20.30
2017-10-22T11:45:59.066Z,20.20
2017-10-22T11:48:27.704Z,20.20
2017-10-22T11:50:56.398Z,20.40
2017-10-22T11:53:25.080Z,20.30
2017-10-22T11:55:53.849Z,20.40
2017-10-22T11:58:22.549Z,20.40
2017-10-22T12:00:51.654Z,20.50
2017-10-22T12:03:20.287Z,20.50
2017-10-22T12:05:49.706Z,20.50
2017-10-22T12:08:18.386Z,20.50
2017-10-22T12:10:47.220Z,20.50
2017-10-22T12:13:15.858Z,20.40
2017-10-22T12:15:47.978Z,20.60
2017-10-22T12:18:22.611Z,20.50
2017-10-22T12:20:52.190Z,20.80
2017-10-22T12:23:20.841Z,20.70
2017-10-22T12:25:49.584Z,20.80
2017-10-22T12:28:18.252Z,20.90
2017-10-22T12:30:46.953Z,21.10
2017-10-22T12:33:15.649Z,21.10
2017-10-22T12:35:44.415Z,21.10
2017-10-22T12:38:14.405Z,21.00
2017-10-22T12:40:43.358Z,21.00
2017-10-22T12:43:12.117Z,21.00
2017-10-22T12:45:40.826Z,21.10
2017-10-22T12:48:10.306Z,20.90
2017-10-22T12:50:40.389Z,20.90
2017-10-22T12:53:09.069Z,20.90
2017-10-22T12:55:38.914Z,21.30
2017-10-22T12:58:07.678Z,21.30
2017-10-22T13:00:37.216Z,21.20
2017-10-22T13:03:06.781Z,21.20
2017-10-22T13:05:36.840Z,21.60
2017-10-22T13:08:05.650Z,22.90
2017-10-22T13:10:34.364Z,24.00
2017-10-22T13:13:04.920Z,24.90
2017-10-22T13:15:34.329Z,26.00
2017-10-22T13:18:10.423Z,25.90
2017-10-22T13:20:48.293Z,28.60
2017-10-22T13:23:17.112Z,28.60
2017-10-22T13:25:45.718Z,28.40
2017-10-22T13:28:14.845Z,27.30
2017-10-22T13:30:43.528Z,27.80
2017-10-22T13:33:12.159Z,27.60
2017-10-22T13:35:40.990Z,28.70
2017-10-22T13:38:09.676Z,29.40
2017-10-22T13:40:38.599Z,29.00
2017-10-22T13:43:07.594Z,28.70
2017-10-22T13:45:36.579Z,27.60
2017-10-22T13:48:05.331Z,27.30
2017-10-22T13:50:35.824Z,26.70
2017-10-22T13:53:04.464Z,26.70
2017-10-22T13:55:33.251Z,27.20
2017-10-22T13:58:02.092Z,27.20
2017-10-22T14:00:31.733Z,26.80
2017-10-22T14:03:00.541Z,25.70
2017-10-22T14:05:29.142Z,26.00
2017-10-22T14:07:57.761Z,25.80
2017-10-22T14:10:26.341Z,24.90
2017-10-22T14:12:54.916Z,24.30
2017-10-22T14:15:23.836Z,24.80
2017-10-22T14:17:52.879Z,25.10
2017-10-22T14:20:21.559Z,25.80
2017-10-22T14:22:51.051Z,26.30
2017-10-22T14:25:19.630Z,26.20
2017-10-22T14:27:48.214Z,26.60
2017-10-22T14:30:17.680Z,24.90
2017-10-22T14:32:46.297Z,24.90
2017-10-22T14:35:14.886Z,24.20
2017-10-22T14:37:44.014Z,23.50
2017-10-22T14:40:12.669Z,23.00
2017-10-22T14:42:41.528Z,22.80
2017-10-22T14:45:10.225Z,22.50
2017-10-22T14:47:38.918Z,22.50
2017-10-22T14:50:07.602Z,22.60
2017-10-22T14:52:36.531Z,22.60
2017-10-22T14:55:05.419Z,22.60
2017-10-22T14:57:34.295Z,22.30
2017-10-22T15:00:03.070Z,22.30
2017-10-22T15:02:31.695Z,22.40
2017-10-22T15:05:00.535Z,22.50
2017-10-22T15:07:29.312Z,22.50
2017-10-22T15:09:58.213Z,22.50
2017-10-22T15:12:27.667Z,22.10
2017-10-22T15:14:56.927Z,22.10
2017-10-22T15:17:26.101Z,22.10
2017-10-22T15:19:54.907Z,22.00
2017-10-22T15:22:25.363Z,21.80
2017-10-22T15:24:54.166Z,21.80
2017-10-22T15:27:24.614Z,21.70
2017-10-22T15:29:53.610Z,21.60
2017-10-22T15:32:22.831Z,21.60
2017-10-22T15:34:51.567Z,21.60
2017-10-22T15:37:20.375Z,21.50
2017-10-22T15:39:50.418Z,21.60
2017-10-22T15:42:19.885Z,21.70
2017-10-22T15:44:50.199Z,21.60
2017-10-22T15:47:19.074Z,21.60
2017-10-22T15:49:47.782Z,21.60
2017-10-22T15:52:16.386Z,21.50
2017-10-22T15:54:45.158Z,21.40
2017-10-22T15:57:15.553Z,21.20
2017-10-22T15:59:44.238Z,21.20
2017-10-22T16:02:12.819Z,21.20
2017-10-22T16:04:41.629Z,21.20
2017-10-22T16:07:10.267Z,21.10
2017-10-22T16:09:39.334Z,21.10
2017-10-22T16:12:08.880Z,21.00
2017-10-22T16:14:37.578Z,21.00
2017-10-22T16:17:07.479Z,20.90
2017-10-22T16:19:36.127Z,20.80
2017-10-22T16:22:04.854Z,20.90
2017-10-22T16:24:33.448Z,20.90
2017-10-22T16:27:02.490Z,20.70
2017-10-22T16:29:32.652Z,20.60
2017-10-22T16:32:01.393Z,20.60
2017-10-22T16:34:30.383Z,20.60
2017-10-22T16:36:59.074Z,20.60
2017-10-22T16:39:27.699Z,20.60
2017-10-22T16:41:56.681Z,20.50
2017-10-22T16:44:25.779Z,20.50
2017-10-22T16:46:56.837Z,20.50
2017-10-22T16:49:26.776Z,20.50
2017-10-22T16:51:56.540Z,20.40
2017-10-22T16:54:26.240Z,20.40
2017-10-22T16:56:56.337Z,20.40
2017-10-22T16:59:27.529Z,20.40
2017-10-22T17:01:57.104Z,20.40
2017-10-22T17:04:25.840Z,20.40
2017-10-22T17:06:55.285Z,20.30
2017-10-22T17:09:24.289Z,20.30
2017-10-22T17:11:53.738Z,20.30
2017-10-22T17:14:22.552Z,20.30
2017-10-22T17:16:51.725Z,20.30
2017-10-22T17:19:21.444Z,20.30
2017-10-22T17:21:50.148Z,20.20
2017-10-22T17:24:18.754Z,20.20
2017-10-22T17:26:47.392Z,20.20
2017-10-22T17:29:16.025Z,20.20
2017-10-22T17:31:45.056Z,20.20
2017-10-22T17:34:15.050Z,20.20
2017-10-22T17:36:47.648Z,20.20
2017-10-22T17:39:17.448Z,20.10
2017-10-22T17:41:47.430Z,20.10
2017-10-22T17:44:18.072Z,20.10
2017-10-22T17:46:47.300Z,20.00
2017-10-22T17:49:16.451Z,20.00
2017-10-22T17:51:46.499Z,20.00
2017-10-22T17:54:15.171Z,20.00
2017-10-22T17:56:44.015Z,20.00
2017-10-22T17:59:12.854Z,20.00
2017-10-22T18:01:42.421Z,19.90
2017-10-22T18:04:11.011Z,19.90
2017-10-22T18:06:40.691Z,19.90
2017-10-22T18:09:09.381Z,19.90
2017-10-22T18:11:38.014Z,19.90
2017-10-22T18:14:06.952Z,20.00
2017-10-22T18:16:36.115Z,19.90
2017-10-22T18:19:05.415Z,19.90
2017-10-22T18:21:34.315Z,19.90
2017-10-22T18:24:04.067Z,19.80
2017-10-22T18:26:32.716Z,19.80
2017-10-22T18:29:02.522Z,19.80
2017-10-22T18:31:31.358Z,19.80
2017-10-22T18:34:00.187Z,19.80
2017-10-22T18:36:30.284Z,19.90
2017-10-22T18:39:00.793Z,19.90
2017-10-22T18:41:29.748Z,19.80
2017-10-22T18:43:58.864Z,19.80
2017-10-22T18:46:28.622Z,19.80
2017-10-22T18:48:57.248Z,19.80
2017-10-22T18:51:26.577Z,19.70
2017-10-22T18:53:55.481Z,19.70
2017-10-22T18:56:24.236Z,19.70
2017-10-22T18:58:52.870Z,19.70
2017-10-22T19:01:21.604Z,19.70
2017-10-22T19:03:50.538Z,19.70
2017-10-22T19:06:19.436Z,19.70
2017-10-22T19:08:48.141Z,19.70
2017-10-22T19:11:16.904Z,19.70
2017-10-22T19:13:47.020Z,19.70
2017-10-22T19:16:16.725Z,19.60
2017-10-22T19:18:45.673Z,19.60
2017-10-22T19:21:15.804Z,19.50
2017-10-22T19:23:47.127Z,19.40
2017-10-22T19:26:16.163Z,19.40
2017-10-22T19:28:45.969Z,19.40
2017-10-22T19:31:15.767Z,19.50
2017-10-22T19:33:44.709Z,19.50
2017-10-22T19:36:13.625Z,19.50
2017-10-22T19:38:42.434Z,19.50
2017-10-22T19:41:11.747Z,19.40
2017-10-22T19:43:41.362Z,19.40
2017-10-22T19:46:10.597Z,19.40
2017-10-22T19:48:39.350Z,19.40
2017-10-22T19:51:09.172Z,19.30
2017-10-22T19:53:38.416Z,19.30
2017-10-22T19:56:07.566Z,19.30
2017-10-22T19:58:37.120Z,19.30
2017-10-22T20:01:06.343Z,19.20
2017-10-22T20:03:35.780Z,19.10
2017-10-22T20:06:04.952Z,19.10
2017-10-22T20:08:34.362Z,19.10
2017-10-22T20:11:03.299Z,19.10
2017-10-22T20:13:32.675Z,19.00
2017-10-22T20:16:02.885Z,18.90
2017-10-22T20:18:32.686Z,18.90
2017-10-22T20:21:04.369Z,18.90
2017-10-22T20:23:35.387Z,18.90
2017-10-22T20:26:04.148Z,18.90
2017-10-22T20:28:34.824Z,18.80
2017-10-22T20:31:04.091Z,18.80
2017-10-22T20:33:34.458Z,18.80
2017-10-22T20:36:04.374Z,18.70
2017-10-22T20:38:33.523Z,18.70
2017-10-22T20:41:04.602Z,18.70
2017-10-22T20:43:33.618Z,18.70
2017-10-22T20:46:02.414Z,18.70
2017-10-22T20:48:31.929Z,18.70
2017-10-22T20:51:00.814Z,18.60
2017-10-22T20:53:30.670Z,18.60
2017-10-22T20:55:59.359Z,18.60
2017-10-22T20:58:28.142Z,18.60
2017-10-22T21:00:56.919Z,18.60
2017-10-22T21:03:25.776Z,18.60
2017-10-22T21:05:54.566Z,18.50
2017-10-22T21:08:23.408Z,18.50
2017-10-22T21:10:53.108Z,18.50
2017-10-22T21:13:22.222Z,18.50
2017-10-22T21:15:50.872Z,18.50
2017-10-22T21:18:19.628Z,18.40
2017-10-22T21:20:48.336Z,18.50
2017-10-22T21:23:17.056Z,18.50
2017-10-22T21:25:45.839Z,18.40
2017-10-22T21:28:14.762Z,18.40
2017-10-22T21:30:43.433Z,18.40
2017-10-22T21:33:12.951Z,18.40
2017-10-22T21:35:42.970Z,18.30
2017-10-22T21:38:11.777Z,18.30
2017-10-22T21:40:41.436Z,18.30
2017-10-22T21:43:11.010Z,18.30
2017-10-22T21:45:39.721Z,18.30
2017-10-22T21:48:09.651Z,18.20
2017-10-22T21:50:38.819Z,18.20
2017-10-22T21:53:08.724Z,18.20
2017-10-22T21:55:38.455Z,18.10
2017-10-22T21:58:08.481Z,18.10
2017-10-22T22:00:38.691Z,18.10
2017-10-22T22:03:08.384Z,18.10
2017-10-22T22:05:37.868Z,18.10
2017-10-22T22:08:07.456Z,18.00
2017-10-22T22:10:37.985Z,18.00
2017-10-22T22:13:06.890Z,18.00
2017-10-22T22:15:35.640Z,18.00
2017-10-22T22:18:04.613Z,18.00
2017-10-22T22:20:33.417Z,18.00
2017-10-22T22:23:02.187Z,17.90
2017-10-22T22:25:30.911Z,17.90
2017-10-22T22:27:59.618Z,17.90
2017-10-22T22:30:29.366Z,17.90
2017-10-22T22:32:58.318Z,17.90
2017-10-22T22:35:27.314Z,17.90
2017-10-22T22:37:56.409Z,17.90
2017-10-22T22:40:26.226Z,17.90
2017-10-22T22:42:54.907Z,17.80
2017-10-22T22:45:23.695Z,17.80
2017-10-22T22:47:52.621Z,17.80
2017-10-22T22:50:21.795Z,17.80
2017-10-22T22:52:50.883Z,17.80
2017-10-22T22:55:20.794Z,17.80
2017-10-22T22:57:49.684Z,17.70
2017-10-22T23:00:18.584Z,17.70
2017-10-22T23:02:49.479Z,17.80
2017-10-22T23:05:18.509Z,17.80
2017-10-22T23:07:47.585Z,17.70
2017-10-22T23:10:17.416Z,17.70
2017-10-22T23:12:46.726Z,17.60
2017-10-22T23:15:16.282Z,17.50
2017-10-22T23:17:45.422Z,17.50
2017-10-22T23:20:14.110Z,17.60
2017-10-22T23:22:43.818Z,17.50
2017-10-22T23:25:12.709Z,17.50
2017-10-22T23:27:41.604Z,17.50
2017-10-22T23:30:10.498Z,17.50
2017-10-22T23:32:39.321Z,17.50
2017-10-22T23:35:08.125Z,17.60
2017-10-22T23:37:36.858Z,17.50
2017-10-22T23:40:06.209Z,17.50
2017-10-22T23:42:34.948Z,17.40
2017-10-22T23:45:03.737Z,17.50
2017-10-22T23:47:32.479Z,17.40
2017-10-22T23:50:01.253Z,17.30
2017-10-22T23:52:30.714Z,17.30
2017-10-22T23:54:59.639Z,17.30
2017-10-22T23:57:30.137Z,17.30
2017-10-22T23:59:59.536Z,17.30
